sensor_id;sensor_type;location;lat;lon;timestamp;pressure;altitude;pressure_sealevel;temperature;humidity
75945;BME280;64628;50.104;14.614;2022-11-02T00:01:59;99148.87;;;9.62;52.26
75945;BME280;64628;50.104;14.614;2022-11-02T00:04:24;99150.32;;;9.78;52.35
75945;BME280;64628;50.104;14.614;2022-11-02T00:06:49;99148.28;;;9.74;52.32
75945;BME280;64628;50.104;14.614;2022-11-02T00:09:15;99154.04;;;9.45;52.27
75945;BME280;64628;50.104;14.614;2022-11-02T00:11:40;99152.55;;;9.60;52.22
75945;BME280;64628;50.104;14.614;2022-11-02T00:14:06;99151.31;;;9.53;52.21
75945;BME280;64628;50.104;14.614;2022-11-02T00:16:31;99158.15;;;9.43;52.35
75945;BME280;64628;50.104;14.614;2022-11-02T00:18:58;99158.90;;;9.44;52.49
75945;BME280;64628;50.104;14.614;2022-11-02T00:21:24;99162.54;;;9.64;52.25
75945;BME280;64628;50.104;14.614;2022-11-02T00:23:48;99161.04;;;9.25;52.04
75945;BME280;64628;50.104;14.614;2022-11-02T00:26:13;99163.59;;;9.18;52.09
75945;BME280;64628;50.104;14.614;2022-11-02T00:28:39;99167.45;;;9.35;52.09
75945;BME280;64628;50.104;14.614;2022-11-02T00:31:04;99167.31;;;9.34;52.21
75945;BME280;64628;50.104;14.614;2022-11-02T00:33:30;99166.01;;;9.23;53.01
75945;BME280;64628;50.104;14.614;2022-11-02T00:35:56;99167.14;;;9.21;52.72
75945;BME280;64628;50.104;14.614;2022-11-02T00:38:21;99170.54;;;9.22;52.36
75945;BME280;64628;50.104;14.614;2022-11-02T00:40:47;99174.21;;;9.12;51.78
75945;BME280;64628;50.104;14.614;2022-11-02T00:43:13;99177.66;;;9.15;52.08
75945;BME280;64628;50.104;14.614;2022-11-02T00:45:38;99179.45;;;9.08;52.35
75945;BME280;64628;50.104;14.614;2022-11-02T00:48:04;99178.64;;;9.04;52.60
75945;BME280;64628;50.104;14.614;2022-11-02T00:50:29;99171.36;;;8.76;52.60
75945;BME280;64628;50.104;14.614;2022-11-02T00:52:54;99171.51;;;9.00;52.89
75945;BME280;64628;50.104;14.614;2022-11-02T00:55:20;99171.68;;;9.03;52.89
75945;BME280;64628;50.104;14.614;2022-11-02T00:57:46;99170.96;;;8.75;52.93
75945;BME280;64628;50.104;14.614;2022-11-02T01:00:12;99176.51;;;8.94;53.07
75945;BME280;64628;50.104;14.614;2022-11-02T01:02:37;99174.73;;;8.93;52.61
75945;BME280;64628;50.104;14.614;2022-11-02T01:05:02;99175.47;;;8.90;52.64
75945;BME280;64628;50.104;14.614;2022-11-02T01:07:27;99176.38;;;8.91;52.79
75945;BME280;64628;50.104;14.614;2022-11-02T01:09:52;99173.20;;;8.97;52.60
75945;BME280;64628;50.104;14.614;2022-11-02T01:12:18;99172.49;;;8.99;52.62
75945;BME280;64628;50.104;14.614;2022-11-02T01:14:46;99174.18;;;9.03;52.73
75945;BME280;64628;50.104;14.614;2022-11-02T01:17:09;99176.39;;;9.28;52.80
75945;BME280;64628;50.104;14.614;2022-11-02T01:19:35;99183.26;;;9.09;52.79
75945;BME280;64628;50.104;14.614;2022-11-02T01:22:00;99182.50;;;9.02;53.25
75945;BME280;64628;50.104;14.614;2022-11-02T01:24:26;99187.83;;;9.09;53.19
75945;BME280;64628;50.104;14.614;2022-11-02T01:26:52;99192.83;;;8.90;53.15
75945;BME280;64628;50.104;14.614;2022-11-02T01:29:18;99185.85;;;9.20;53.07
75945;BME280;64628;50.104;14.614;2022-11-02T01:31:43;99183.36;;;9.23;52.99
75945;BME280;64628;50.104;14.614;2022-11-02T01:34:10;99184.34;;;9.27;52.80
75945;BME280;64628;50.104;14.614;2022-11-02T01:36:34;99182.02;;;9.22;52.93
75945;BME280;64628;50.104;14.614;2022-11-02T01:39:00;99183.18;;;9.01;53.03
75945;BME280;64628;50.104;14.614;2022-11-02T01:41:25;99183.75;;;9.24;53.20
75945;BME280;64628;50.104;14.614;2022-11-02T01:43:54;99177.08;;;9.27;52.88
75945;BME280;64628;50.104;14.614;2022-11-02T01:46:19;99174.98;;;9.29;52.81
75945;BME280;64628;50.104;14.614;2022-11-02T01:48:44;99171.79;;;9.05;52.75
75945;BME280;64628;50.104;14.614;2022-11-02T01:51:10;99174.36;;;8.85;52.64
75945;BME280;64628;50.104;14.614;2022-11-02T01:53:34;99173.53;;;9.33;52.73
75945;BME280;64628;50.104;14.614;2022-11-02T01:55:59;99174.24;;;9.42;52.74
75945;BME280;64628;50.104;14.614;2022-11-02T01:58:25;99171.35;;;8.90;52.91
75945;BME280;64628;50.104;14.614;2022-11-02T02:00:49;99174.16;;;9.22;52.75
75945;BME280;64628;50.104;14.614;2022-11-02T02:03:17;99179.50;;;9.45;52.87
75945;BME280;64628;50.104;14.614;2022-11-02T02:05:43;99183.71;;;9.25;52.81
75945;BME280;64628;50.104;14.614;2022-11-02T02:08:06;99186.36;;;9.53;52.83
75945;BME280;64628;50.104;14.614;2022-11-02T02:10:31;99186.19;;;9.29;52.96
75945;BME280;64628;50.104;14.614;2022-11-02T02:12:56;99180.67;;;9.38;53.00
75945;BME280;64628;50.104;14.614;2022-11-02T02:15:26;99181.66;;;9.41;52.90
75945;BME280;64628;50.104;14.614;2022-11-02T02:17:51;99180.01;;;9.65;53.04
75945;BME280;64628;50.104;14.614;2022-11-02T02:20:19;99179.02;;;9.23;52.90
75945;BME280;64628;50.104;14.614;2022-11-02T02:25:20;99177.95;;;9.64;52.98
75945;BME280;64628;50.104;14.614;2022-11-02T02:30:02;99173.73;;;9.42;52.84
75945;BME280;64628;50.104;14.614;2022-11-02T02:32:26;99173.48;;;9.26;52.77
75945;BME280;64628;50.104;14.614;2022-11-02T02:34:50;99173.60;;;9.52;52.74
75945;BME280;64628;50.104;14.614;2022-11-02T02:37:15;99171.98;;;9.77;52.83
75945;BME280;64628;50.104;14.614;2022-11-02T02:39:41;99174.10;;;9.52;52.89
75945;BME280;64628;50.104;14.614;2022-11-02T02:42:08;99174.30;;;9.74;52.84
75945;BME280;64628;50.104;14.614;2022-11-02T02:44:32;99178.25;;;9.74;52.96
75945;BME280;64628;50.104;14.614;2022-11-02T02:46:56;99180.88;;;9.08;52.72
75945;BME280;64628;50.104;14.614;2022-11-02T02:49:22;99181.26;;;9.55;52.80
75945;BME280;64628;50.104;14.614;2022-11-02T02:51:45;99179.85;;;9.52;52.73
75945;BME280;64628;50.104;14.614;2022-11-02T02:54:12;99181.71;;;9.44;53.05
75945;BME280;64628;50.104;14.614;2022-11-02T02:56:38;99180.06;;;9.45;52.72
75945;BME280;64628;50.104;14.614;2022-11-02T02:59:03;99175.54;;;9.44;52.70
75945;BME280;64628;50.104;14.614;2022-11-02T03:01:26;99174.40;;;9.32;52.69
75945;BME280;64628;50.104;14.614;2022-11-02T03:03:51;99173.34;;;9.53;52.59
75945;BME280;64628;50.104;14.614;2022-11-02T03:06:19;99170.31;;;9.10;52.48
75945;BME280;64628;50.104;14.614;2022-11-02T03:08:47;99174.11;;;9.60;52.54
75945;BME280;64628;50.104;14.614;2022-11-02T03:11:12;99178.02;;;9.64;52.57
75945;BME280;64628;50.104;14.614;2022-11-02T03:13:39;99181.70;;;9.28;52.60
75945;BME280;64628;50.104;14.614;2022-11-02T03:16:03;99182.10;;;9.28;52.55
75945;BME280;64628;50.104;14.614;2022-11-02T03:18:33;99185.16;;;9.48;52.50
75945;BME280;64628;50.104;14.614;2022-11-02T03:20:57;99188.71;;;8.94;52.55
75945;BME280;64628;50.104;14.614;2022-11-02T03:23:20;99188.52;;;9.20;52.33
75945;BME280;64628;50.104;14.614;2022-11-02T03:25:46;99189.74;;;9.39;52.47
75945;BME280;64628;50.104;14.614;2022-11-02T03:28:11;99186.84;;;9.07;52.77
75945;BME280;64628;50.104;14.614;2022-11-02T03:30:36;99190.00;;;9.33;52.52
75945;BME280;64628;50.104;14.614;2022-11-02T03:33:03;99195.11;;;9.29;52.64
75945;BME280;64628;50.104;14.614;2022-11-02T03:35:30;99194.02;;;9.31;52.35
75945;BME280;64628;50.104;14.614;2022-11-02T03:37:53;99194.63;;;9.32;52.17
75945;BME280;64628;50.104;14.614;2022-11-02T03:40:18;99198.94;;;9.26;52.30
75945;BME280;64628;50.104;14.614;2022-11-02T03:42:40;99198.64;;;8.94;52.18
75945;BME280;64628;50.104;14.614;2022-11-02T03:45:09;99201.56;;;9.15;52.51
75945;BME280;64628;50.104;14.614;2022-11-02T03:47:33;99200.06;;;9.17;52.62
75945;BME280;64628;50.104;14.614;2022-11-02T03:49:57;99204.46;;;9.11;52.65
75945;BME280;64628;50.104;14.614;2022-11-02T03:52:27;99207.72;;;9.18;52.32
75945;BME280;64628;50.104;14.614;2022-11-02T03:54:52;99214.03;;;8.93;52.29
75945;BME280;64628;50.104;14.614;2022-11-02T03:57:17;99210.98;;;9.01;52.86
75945;BME280;64628;50.104;14.614;2022-11-02T03:59:38;99206.64;;;8.95;52.48
75945;BME280;64628;50.104;14.614;2022-11-02T04:02:04;99212.47;;;8.98;52.30
75945;BME280;64628;50.104;14.614;2022-11-02T04:04:29;99208.67;;;8.94;52.28
75945;BME280;64628;50.104;14.614;2022-11-02T04:06:55;99211.29;;;8.90;52.51
75945;BME280;64628;50.104;14.614;2022-11-02T04:09:20;99214.73;;;8.92;52.19
75945;BME280;64628;50.104;14.614;2022-11-02T04:11:45;99217.62;;;8.91;52.35
75945;BME280;64628;50.104;14.614;2022-11-02T04:14:11;99220.25;;;8.87;52.54
75945;BME280;64628;50.104;14.614;2022-11-02T04:16:36;99221.86;;;8.80;52.79
75945;BME280;64628;50.104;14.614;2022-11-02T04:19:02;99223.76;;;8.85;52.76
75945;BME280;64628;50.104;14.614;2022-11-02T04:21:28;99222.43;;;8.88;52.60
75945;BME280;64628;50.104;14.614;2022-11-02T04:23:53;99225.73;;;8.87;52.71
75945;BME280;64628;50.104;14.614;2022-11-02T04:26:18;99227.84;;;8.81;52.64
75945;BME280;64628;50.104;14.614;2022-11-02T04:28:44;99225.66;;;8.82;52.79
75945;BME280;64628;50.104;14.614;2022-11-02T04:31:10;99223.97;;;8.89;52.61
75945;BME280;64628;50.104;14.614;2022-11-02T04:33:35;99225.72;;;8.95;52.43
75945;BME280;64628;50.104;14.614;2022-11-02T04:36:01;99229.12;;;8.70;53.08
75945;BME280;64628;50.104;14.614;2022-11-02T04:38:27;99226.36;;;9.01;52.62
75945;BME280;64628;50.104;14.614;2022-11-02T04:40:52;99230.16;;;9.11;52.45
75945;BME280;64628;50.104;14.614;2022-11-02T04:43:17;99234.09;;;8.96;52.50
75945;BME280;64628;50.104;14.614;2022-11-02T04:45:42;99230.85;;;9.28;52.64
75945;BME280;64628;50.104;14.614;2022-11-02T04:48:09;99227.85;;;9.28;52.80
75945;BME280;64628;50.104;14.614;2022-11-02T04:50:34;99227.67;;;9.30;52.63
75945;BME280;64628;50.104;14.614;2022-11-02T04:53:00;99226.20;;;9.41;52.46
75945;BME280;64628;50.104;14.614;2022-11-02T04:55:25;99229.69;;;9.52;52.26
75945;BME280;64628;50.104;14.614;2022-11-02T04:57:50;99230.05;;;9.25;52.51
75945;BME280;64628;50.104;14.614;2022-11-02T05:00:16;99228.33;;;9.38;51.94
75945;BME280;64628;50.104;14.614;2022-11-02T05:02:41;99227.14;;;9.56;51.84
75945;BME280;64628;50.104;14.614;2022-11-02T05:05:07;99226.23;;;9.42;51.71
75945;BME280;64628;50.104;14.614;2022-11-02T05:07:32;99220.78;;;9.61;51.68
75945;BME280;64628;50.104;14.614;2022-11-02T05:09:58;99227.55;;;9.65;51.59
75945;BME280;64628;50.104;14.614;2022-11-02T05:12:22;99221.04;;;9.63;51.90
75945;BME280;64628;50.104;14.614;2022-11-02T05:14:48;99217.40;;;9.65;51.85
75945;BME280;64628;50.104;14.614;2022-11-02T05:17:13;99213.50;;;9.70;52.38
75945;BME280;64628;50.104;14.614;2022-11-02T05:19:39;99213.88;;;9.50;52.23
75945;BME280;64628;50.104;14.614;2022-11-02T05:22:04;99218.05;;;9.76;52.32
75945;BME280;64628;50.104;14.614;2022-11-02T05:24:30;99213.08;;;9.26;52.32
75945;BME280;64628;50.104;14.614;2022-11-02T05:26:55;99210.51;;;9.49;52.15
75945;BME280;64628;50.104;14.614;2022-11-02T05:29:21;99213.79;;;9.42;52.31
75945;BME280;64628;50.104;14.614;2022-11-02T05:31:46;99231.49;;;9.55;52.32
75945;BME280;64628;50.104;14.614;2022-11-02T05:34:11;99226.76;;;8.96;53.05
75945;BME280;64628;50.104;14.614;2022-11-02T05:36:36;99232.16;;;9.33;52.77
75945;BME280;64628;50.104;14.614;2022-11-02T05:39:02;99232.12;;;9.24;52.86
75945;BME280;64628;50.104;14.614;2022-11-02T05:41:27;99230.13;;;9.15;52.41
75945;BME280;64628;50.104;14.614;2022-11-02T05:43:53;99230.22;;;9.25;52.60
75945;BME280;64628;50.104;14.614;2022-11-02T05:46:18;99227.81;;;9.07;52.28
75945;BME280;64628;50.104;14.614;2022-11-02T05:48:43;99229.29;;;9.01;52.36
75945;BME280;64628;50.104;14.614;2022-11-02T05:51:09;99233.19;;;9.44;52.18
75945;BME280;64628;50.104;14.614;2022-11-02T05:53:34;99230.30;;;9.24;51.96
75945;BME280;64628;50.104;14.614;2022-11-02T05:56:00;99232.93;;;9.13;52.28
75945;BME280;64628;50.104;14.614;2022-11-02T05:58:25;99232.46;;;9.11;52.08
75945;BME280;64628;50.104;14.614;2022-11-02T06:00:50;99233.20;;;9.10;51.85
75945;BME280;64628;50.104;14.614;2022-11-02T06:03:15;99229.61;;;8.70;51.70
75945;BME280;64628;50.104;14.614;2022-11-02T06:05:40;99228.26;;;8.77;51.63
75945;BME280;64628;50.104;14.614;2022-11-02T06:08:06;99230.36;;;8.72;51.86
75945;BME280;64628;50.104;14.614;2022-11-02T06:10:32;99234.57;;;8.71;51.48
75945;BME280;64628;50.104;14.614;2022-11-02T06:12:58;99234.60;;;8.63;51.76
75945;BME280;64628;50.104;14.614;2022-11-02T06:15:22;99237.28;;;8.43;52.38
75945;BME280;64628;50.104;14.614;2022-11-02T06:17:48;99242.45;;;8.67;52.46
75945;BME280;64628;50.104;14.614;2022-11-02T06:20:13;99240.79;;;8.77;52.08
75945;BME280;64628;50.104;14.614;2022-11-02T06:22:38;99240.34;;;8.75;51.84
75945;BME280;64628;50.104;14.614;2022-11-02T06:25:04;99239.19;;;8.52;51.92
75945;BME280;64628;50.104;14.614;2022-11-02T06:27:29;99240.72;;;8.78;51.71
75945;BME280;64628;50.104;14.614;2022-11-02T06:29:54;99238.03;;;8.76;51.76
75945;BME280;64628;50.104;14.614;2022-11-02T06:32:20;99241.03;;;8.28;52.17
75945;BME280;64628;50.104;14.614;2022-11-02T06:34:45;99239.34;;;8.97;51.99
75945;BME280;64628;50.104;14.614;2022-11-02T06:37:10;99245.35;;;8.75;52.11
75945;BME280;64628;50.104;14.614;2022-11-02T06:39:36;99253.86;;;9.61;51.48
75945;BME280;64628;50.104;14.614;2022-11-02T06:42:02;99254.21;;;10.03;50.43
75945;BME280;64628;50.104;14.614;2022-11-02T06:44:26;99253.66;;;10.48;48.99
75945;BME280;64628;50.104;14.614;2022-11-02T06:46:51;99253.40;;;11.16;47.99
75945;BME280;64628;50.104;14.614;2022-11-02T06:49:17;99253.35;;;10.88;47.91
75945;BME280;64628;50.104;14.614;2022-11-02T06:51:42;99255.53;;;11.05;47.90
75945;BME280;64628;50.104;14.614;2022-11-02T06:54:07;99260.14;;;11.59;47.82
75945;BME280;64628;50.104;14.614;2022-11-02T06:56:32;99261.57;;;11.46;47.82
75945;BME280;64628;50.104;14.614;2022-11-02T06:58:57;99259.00;;;11.69;47.74
75945;BME280;64628;50.104;14.614;2022-11-02T07:01:22;99259.55;;;11.85;48.48
75945;BME280;64628;50.104;14.614;2022-11-02T07:03:48;99263.74;;;12.04;48.51
75945;BME280;64628;50.104;14.614;2022-11-02T07:06:13;99268.70;;;12.00;48.15
75945;BME280;64628;50.104;14.614;2022-11-02T07:08:39;99270.24;;;11.98;47.81
75945;BME280;64628;50.104;14.614;2022-11-02T07:11:04;99270.17;;;12.02;48.27
75945;BME280;64628;50.104;14.614;2022-11-02T07:13:30;99268.62;;;11.97;48.59
75945;BME280;64628;50.104;14.614;2022-11-02T07:15:55;99272.78;;;12.07;49.13
75945;BME280;64628;50.104;14.614;2022-11-02T07:18:21;99275.85;;;12.33;48.45
75945;BME280;64628;50.104;14.614;2022-11-02T07:20:46;99276.84;;;13.03;47.38
75945;BME280;64628;50.104;14.614;2022-11-02T07:23:12;99276.83;;;13.01;47.42
75945;BME280;64628;50.104;14.614;2022-11-02T07:25:37;99276.66;;;13.40;46.74
75945;BME280;64628;50.104;14.614;2022-11-02T07:28:03;99274.86;;;12.79;47.79
75945;BME280;64628;50.104;14.614;2022-11-02T07:30:28;99278.75;;;13.76;47.05
75945;BME280;64628;50.104;14.614;2022-11-02T07:32:53;99279.41;;;13.45;47.48
75945;BME280;64628;50.104;14.614;2022-11-02T07:35:18;99280.78;;;13.46;47.90
75945;BME280;64628;50.104;14.614;2022-11-02T07:37:44;99286.77;;;13.65;47.39
75945;BME280;64628;50.104;14.614;2022-11-02T07:40:11;99291.21;;;13.14;48.26
75945;BME280;64628;50.104;14.614;2022-11-02T07:42:34;99293.31;;;13.49;47.85
75945;BME280;64628;50.104;14.614;2022-11-02T07:45:00;99294.07;;;13.52;48.33
75945;BME280;64628;50.104;14.614;2022-11-02T07:47:25;99289.63;;;13.39;47.70
75945;BME280;64628;50.104;14.614;2022-11-02T07:49:50;99287.90;;;13.93;47.78
75945;BME280;64628;50.104;14.614;2022-11-02T07:52:16;99286.15;;;13.77;48.08
75945;BME280;64628;50.104;14.614;2022-11-02T07:54:41;99289.06;;;13.35;48.61
75945;BME280;64628;50.104;14.614;2022-11-02T07:57:06;99290.30;;;13.63;48.80
75945;BME280;64628;50.104;14.614;2022-11-02T07:59:32;99289.09;;;13.98;48.61
75945;BME280;64628;50.104;14.614;2022-11-02T08:01:58;99297.35;;;14.09;48.10
75945;BME280;64628;50.104;14.614;2022-11-02T08:04:24;99300.56;;;14.41;48.87
75945;BME280;64628;50.104;14.614;2022-11-02T08:06:50;99302.56;;;14.62;48.45
75945;BME280;64628;50.104;14.614;2022-11-02T08:09:15;99300.41;;;14.68;48.27
75945;BME280;64628;50.104;14.614;2022-11-02T08:11:40;99299.48;;;15.07;48.01
75945;BME280;64628;50.104;14.614;2022-11-02T08:14:06;99302.59;;;14.76;47.79
75945;BME280;64628;50.104;14.614;2022-11-02T08:16:31;99304.32;;;15.00;47.32
75945;BME280;64628;50.104;14.614;2022-11-02T08:18:57;99307.57;;;15.13;46.88
75945;BME280;64628;50.104;14.614;2022-11-02T08:21:22;99307.90;;;15.67;46.33
75945;BME280;64628;50.104;14.614;2022-11-02T08:23:48;99305.02;;;16.01;45.48
75945;BME280;64628;50.104;14.614;2022-11-02T08:26:14;99305.60;;;16.18;45.24
75945;BME280;64628;50.104;14.614;2022-11-02T08:28:39;99309.01;;;16.52;44.29
75945;BME280;64628;50.104;14.614;2022-11-02T08:31:04;99303.81;;;16.83;44.01
75945;BME280;64628;50.104;14.614;2022-11-02T08:33:29;99304.85;;;17.14;43.19
75945;BME280;64628;50.104;14.614;2022-11-02T08:36:00;99305.71;;;16.96;43.15
75945;BME280;64628;50.104;14.614;2022-11-02T08:38:20;99300.13;;;17.23;42.88
75945;BME280;64628;50.104;14.614;2022-11-02T08:40:45;99300.88;;;17.29;42.38
75945;BME280;64628;50.104;14.614;2022-11-02T08:43:12;99303.05;;;17.46;41.89
75945;BME280;64628;50.104;14.614;2022-11-02T08:45:37;99307.38;;;19.07;39.21
75945;BME280;64628;50.104;14.614;2022-11-02T08:48:01;99298.31;;;20.62;35.94
75945;BME280;64628;50.104;14.614;2022-11-02T08:50:27;99298.26;;;20.51;34.59
75945;BME280;64628;50.104;14.614;2022-11-02T08:52:52;99297.82;;;21.76;34.31
75945;BME280;64628;50.104;14.614;2022-11-02T08:55:18;99293.94;;;22.63;32.33
75945;BME280;64628;50.104;14.614;2022-11-02T08:57:44;99297.67;;;23.18;30.52
75945;BME280;64628;50.104;14.614;2022-11-02T09:00:09;99295.56;;;23.27;30.13
75945;BME280;64628;50.104;14.614;2022-11-02T09:02:34;99286.61;;;24.63;28.23
75945;BME280;64628;50.104;14.614;2022-11-02T09:05:00;99287.46;;;25.52;26.68
75945;BME280;64628;50.104;14.614;2022-11-02T09:07:25;99291.08;;;26.52;25.26
75945;BME280;64628;50.104;14.614;2022-11-02T09:09:51;99296.06;;;26.10;25.72
75945;BME280;64628;50.104;14.614;2022-11-02T09:12:17;99294.51;;;26.36;25.01
75945;BME280;64628;50.104;14.614;2022-11-02T09:14:43;99296.37;;;26.79;24.79
75945;BME280;64628;50.104;14.614;2022-11-02T09:17:09;99302.10;;;27.15;23.86
75945;BME280;64628;50.104;14.614;2022-11-02T09:19:34;99302.13;;;26.54;24.11
75945;BME280;64628;50.104;14.614;2022-11-02T09:22:00;99305.59;;;26.20;24.90
75945;BME280;64628;50.104;14.614;2022-11-02T09:24:26;99302.08;;;24.62;26.28
75945;BME280;64628;50.104;14.614;2022-11-02T09:26:52;99302.38;;;24.25;27.36
75945;BME280;64628;50.104;14.614;2022-11-02T09:29:18;99299.36;;;24.65;27.24
75945;BME280;64628;50.104;14.614;2022-11-02T09:31:43;99291.38;;;26.59;24.27
75945;BME280;64628;50.104;14.614;2022-11-02T09:34:09;99297.01;;;27.31;23.72
75945;BME280;64628;50.104;14.614;2022-11-02T09:36:35;99293.17;;;27.67;23.02
75945;BME280;64628;50.104;14.614;2022-11-02T09:39:01;99289.10;;;29.24;21.79
75945;BME280;64628;50.104;14.614;2022-11-02T09:41:33;99289.91;;;29.96;20.61
75945;BME280;64628;50.104;14.614;2022-11-02T09:43:58;99292.79;;;30.30;20.23
75945;BME280;64628;50.104;14.614;2022-11-02T09:46:20;99298.58;;;29.51;20.23
75945;BME280;64628;50.104;14.614;2022-11-02T09:48:46;99290.33;;;29.81;20.33
75945;BME280;64628;50.104;14.614;2022-11-02T09:51:12;99291.79;;;30.02;19.78
75945;BME280;64628;50.104;14.614;2022-11-02T09:53:43;99292.77;;;30.13;19.98
75945;BME280;64628;50.104;14.614;2022-11-02T09:56:01;99286.96;;;30.16;19.30
75945;BME280;64628;50.104;14.614;2022-11-02T09:58:31;99292.11;;;30.60;19.54
75945;BME280;64628;50.104;14.614;2022-11-02T10:00:56;99284.63;;;29.88;19.91
75945;BME280;64628;50.104;14.614;2022-11-02T10:03:28;99282.70;;;30.16;19.75
75945;BME280;64628;50.104;14.614;2022-11-02T10:05:46;99283.83;;;29.47;20.32
75945;BME280;64628;50.104;14.614;2022-11-02T10:08:23;99281.85;;;29.72;20.24
75945;BME280;64628;50.104;14.614;2022-11-02T10:10:40;99275.69;;;29.51;20.32
75945;BME280;64628;50.104;14.614;2022-11-02T10:13:06;99278.45;;;29.38;20.13
75945;BME280;64628;50.104;14.614;2022-11-02T10:15:27;99281.41;;;28.95;20.86
75945;BME280;64628;50.104;14.614;2022-11-02T10:17:53;99277.23;;;29.03;20.90
75945;BME280;64628;50.104;14.614;2022-11-02T10:20:21;99280.84;;;29.34;20.59
75945;BME280;64628;50.104;14.614;2022-11-02T10:22:41;99281.62;;;29.12;20.75
75945;BME280;64628;50.104;14.614;2022-11-02T10:25:09;99282.12;;;29.17;20.62
75945;BME280;64628;50.104;14.614;2022-11-02T10:27:36;99284.04;;;29.48;20.42
75945;BME280;64628;50.104;14.614;2022-11-02T10:30:02;99281.99;;;29.30;20.42
75945;BME280;64628;50.104;14.614;2022-11-02T10:32:23;99282.49;;;27.85;21.71
75945;BME280;64628;50.104;14.614;2022-11-02T10:34:51;99284.67;;;28.11;21.88
75945;BME280;64628;50.104;14.614;2022-11-02T10:37:25;99283.06;;;27.74;22.29
75945;BME280;64628;50.104;14.614;2022-11-02T10:39:48;99276.25;;;26.63;22.96
75945;BME280;64628;50.104;14.614;2022-11-02T10:42:17;99280.24;;;26.47;23.53
75945;BME280;64628;50.104;14.614;2022-11-02T10:44:42;99276.40;;;25.55;24.77
75945;BME280;64628;50.104;14.614;2022-11-02T10:47:05;99279.45;;;24.07;26.13
75945;BME280;64628;50.104;14.614;2022-11-02T10:49:41;99287.19;;;23.06;27.66
75945;BME280;64628;50.104;14.614;2022-11-02T10:51:49;99286.19;;;22.98;28.16
75945;BME280;64628;50.104;14.614;2022-11-02T10:54:15;99287.04;;;21.50;29.68
75945;BME280;64628;50.104;14.614;2022-11-02T10:56:41;99284.96;;;20.05;31.26
75945;BME280;64628;50.104;14.614;2022-11-02T10:59:11;99283.35;;;20.07;31.97
75945;BME280;64628;50.104;14.614;2022-11-02T11:01:31;99285.43;;;19.83;32.30
75945;BME280;64628;50.104;14.614;2022-11-02T11:03:57;99298.42;;;19.38;32.83
75945;BME280;64628;50.104;14.614;2022-11-02T11:06:22;99298.08;;;19.07;33.17
75945;BME280;64628;50.104;14.614;2022-11-02T11:08:46;99292.94;;;18.47;34.02
75945;BME280;64628;50.104;14.614;2022-11-02T11:11:16;99291.73;;;18.44;33.77
75945;BME280;64628;50.104;14.614;2022-11-02T11:13:36;99293.80;;;18.49;34.74
75945;BME280;64628;50.104;14.614;2022-11-02T11:16:02;99295.30;;;17.93;35.19
75945;BME280;64628;50.104;14.614;2022-11-02T11:18:26;99292.28;;;17.33;35.72
75945;BME280;64628;50.104;14.614;2022-11-02T11:20:53;99292.14;;;16.95;36.48
75945;BME280;64628;50.104;14.614;2022-11-02T11:23:20;99291.98;;;17.20;36.36
75945;BME280;64628;50.104;14.614;2022-11-02T11:25:54;99289.36;;;17.08;36.36
75945;BME280;64628;50.104;14.614;2022-11-02T11:30:36;99287.57;;;17.17;36.28
75945;BME280;64628;50.104;14.614;2022-11-02T11:33:02;99285.95;;;17.19;36.30
75945;BME280;64628;50.104;14.614;2022-11-02T11:35:28;99282.11;;;17.63;36.11
75945;BME280;64628;50.104;14.614;2022-11-02T11:37:53;99277.40;;;17.62;36.74
75945;BME280;64628;50.104;14.614;2022-11-02T11:40:18;99280.36;;;16.55;37.66
75945;BME280;64628;50.104;14.614;2022-11-02T11:42:42;99276.97;;;16.73;37.76
75945;BME280;64628;50.104;14.614;2022-11-02T11:45:16;99274.35;;;16.59;38.03
75945;BME280;64628;50.104;14.614;2022-11-02T11:47:34;99275.75;;;16.32;38.40
75945;BME280;64628;50.104;14.614;2022-11-02T11:50:01;99273.43;;;16.40;38.66
75945;BME280;64628;50.104;14.614;2022-11-02T11:52:27;99275.63;;;16.86;37.93
75945;BME280;64628;50.104;14.614;2022-11-02T11:54:55;99270.46;;;17.06;38.04
75945;BME280;64628;50.104;14.614;2022-11-02T11:57:23;99270.20;;;16.56;38.45
75945;BME280;64628;50.104;14.614;2022-11-02T11:59:45;99267.48;;;16.55;38.52
75945;BME280;64628;50.104;14.614;2022-11-02T12:04:32;99265.37;;;17.05;38.06
75945;BME280;64628;50.104;14.614;2022-11-02T12:07:12;99264.72;;;16.71;38.32
75945;BME280;64628;50.104;14.614;2022-11-02T12:09:25;99266.73;;;17.48;37.89
75945;BME280;64628;50.104;14.614;2022-11-02T12:11:51;99269.32;;;17.15;38.17
75945;BME280;64628;50.104;14.614;2022-11-02T12:14:19;99260.96;;;17.32;37.82
75945;BME280;64628;50.104;14.614;2022-11-02T12:16:49;99263.60;;;17.61;37.24
75945;BME280;64628;50.104;14.614;2022-11-02T12:19:12;99262.38;;;17.55;37.17
75945;BME280;64628;50.104;14.614;2022-11-02T12:21:37;99255.79;;;17.21;37.53
75945;BME280;64628;50.104;14.614;2022-11-02T12:24:03;99255.57;;;17.59;37.57
75945;BME280;64628;50.104;14.614;2022-11-02T12:26:26;99254.99;;;17.07;37.83
75945;BME280;64628;50.104;14.614;2022-11-02T12:28:45;99252.87;;;17.14;37.64
75945;BME280;64628;50.104;14.614;2022-11-02T12:31:17;99250.21;;;17.27;37.47
75945;BME280;64628;50.104;14.614;2022-11-02T12:33:42;99246.30;;;17.02;37.96
75945;BME280;64628;50.104;14.614;2022-11-02T12:36:03;99247.18;;;17.41;37.21
75945;BME280;64628;50.104;14.614;2022-11-02T12:38:40;99248.08;;;17.30;37.28
75945;BME280;64628;50.104;14.614;2022-11-02T12:40:57;99248.14;;;17.23;37.51
75945;BME280;64628;50.104;14.614;2022-11-02T12:43:28;99242.59;;;17.12;37.29
75945;BME280;64628;50.104;14.614;2022-11-02T12:45:45;99239.41;;;17.08;37.13
75945;BME280;64628;50.104;14.614;2022-11-02T12:48:05;99234.30;;;17.75;37.19
75945;BME280;64628;50.104;14.614;2022-11-02T12:53:05;99233.67;;;17.53;36.83
75945;BME280;64628;50.104;14.614;2022-11-02T12:55:23;99231.64;;;17.86;36.82
75945;BME280;64628;50.104;14.614;2022-11-02T12:57:47;99236.55;;;17.82;35.77